KLM274 EGPH-EGAC
Flight info
| Callsign | KLM274 |
|---|---|
| Flight time | 0h 34m |
| Altitude | 16000 |
| Route | GOSAM P600 BLACA DCT MAGEE |
| Aircraft | A21N/M-SDE2E3FGHIRWXY/LB1 |
Departure
| Time | 2026-04-21 09:33 |
|---|---|
| Airport | Edinburgh Airport (EGPH) |
Arrival
| Time | 2026-04-21 10:07 |
|---|---|
| Airport | George Best Belfast City Airport (EGAC) |
| Time | Latitude | Longitude | Altitude | Speed | Heading |
|---|---|---|---|---|---|
| 2026-04-21 09:19 | 55.94945 | -3.36361 | 116 ft | 0 kts | 149° |
| 2026-04-21 09:26 | 55.94948 | -3.36364 | 112 ft | 3 kts | 149° |
| 2026-04-21 09:26 | 55.94971 | -3.36385 | 112 ft | 4 kts | 161° |
| 2026-04-21 09:27 | 55.94997 | -3.36397 | 113 ft | 4 kts | 172° |
| 2026-04-21 09:27 | 55.95024 | -3.36401 | 113 ft | 4 kts | 181° |
| 2026-04-21 09:27 | 55.95051 | -3.36399 | 113 ft | 4 kts | 176° |
| 2026-04-21 09:27 | 55.95069 | -3.36405 | 113 ft | 0 kts | 149° |
| 2026-04-21 09:29 | 55.94998 | -3.36445 | 116 ft | 22 kts | 222° |
| 2026-04-21 09:29 | 55.94943 | -3.36609 | 112 ft | 23 kts | 238° |
| 2026-04-21 09:30 | 55.94919 | -3.36891 | 116 ft | 23 kts | 263° |
| 2026-04-21 09:30 | 55.94843 | -3.37140 | 114 ft | 23 kts | 239° |
| 2026-04-21 09:30 | 55.94763 | -3.37378 | 112 ft | 22 kts | 239° |
| 2026-04-21 09:30 | 55.94687 | -3.37605 | 112 ft | 21 kts | 239° |
| 2026-04-21 09:31 | 55.94606 | -3.37844 | 113 ft | 26 kts | 239° |
| 2026-04-21 09:31 | 55.94507 | -3.38135 | 114 ft | 27 kts | 238° |
| 2026-04-21 09:31 | 55.94411 | -3.38417 | 115 ft | 26 kts | 239° |
| 2026-04-21 09:31 | 55.94318 | -3.38689 | 114 ft | 24 kts | 238° |
| 2026-04-21 09:32 | 55.94309 | -3.38849 | 114 ft | 9 kts | 306° |
| 2026-04-21 09:32 | 55.94394 | -3.38929 | 112 ft | 13 kts | 18° |
| 2026-04-21 09:32 | 55.94469 | -3.38782 | 112 ft | 39 kts | 58° |
| 2026-04-21 09:32 | 55.94781 | -3.37892 | 112 ft | 118 kts | 59° |
| 2026-04-21 09:33 | 55.95099 | -3.36938 | 175 ft | 144 kts | 60° |
| 2026-04-21 09:33 | 55.95771 | -3.34889 | 1104 ft | 143 kts | 58° |
| 2026-04-21 09:33 | 55.96197 | -3.33946 | 1540 ft | 148 kts | 45° |
| 2026-04-21 09:33 | 55.97013 | -3.32641 | 1875 ft | 168 kts | 45° |
| 2026-04-21 09:34 | 55.98110 | -3.31542 | 2170 ft | 201 kts | 11° |
| 2026-04-21 09:34 | 55.99565 | -3.32128 | 2606 ft | 237 kts | 329° |
| 2026-04-21 09:34 | 56.00659 | -3.34522 | 3194 ft | 264 kts | 297° |
| 2026-04-21 09:34 | 56.01250 | -3.37648 | 4084 ft | 273 kts | 285° |
| 2026-04-21 09:35 | 56.01641 | -3.40996 | 5080 ft | 278 kts | 277° |
| 2026-04-21 09:35 | 56.01599 | -3.44499 | 5789 ft | 288 kts | 261° |
| 2026-04-21 09:35 | 56.01177 | -3.47990 | 5970 ft | 287 kts | 251° |
| 2026-04-21 09:35 | 56.00620 | -3.51410 | 6007 ft | 286 kts | 253° |
| 2026-04-21 09:36 | 56.00123 | -3.54855 | 6008 ft | 287 kts | 255° |
| 2026-04-21 09:36 | 55.99648 | -3.58317 | 6008 ft | 288 kts | 255° |
| 2026-04-21 09:36 | 55.99176 | -3.61786 | 6008 ft | 288 kts | 255° |
| 2026-04-21 09:36 | 55.98697 | -3.65253 | 6003 ft | 287 kts | 255° |
| 2026-04-21 09:37 | 55.98213 | -3.68704 | 6004 ft | 286 kts | 254° |
| 2026-04-21 09:37 | 55.97725 | -3.72146 | 6004 ft | 286 kts | 254° |
| 2026-04-21 09:37 | 55.97228 | -3.75595 | 5994 ft | 287 kts | 254° |
| 2026-04-21 09:37 | 55.96728 | -3.79043 | 5995 ft | 287 kts | 254° |
| 2026-04-21 09:38 | 55.96225 | -3.82523 | 6566 ft | 290 kts | 254° |
| 2026-04-21 09:38 | 55.95718 | -3.86020 | 7561 ft | 292 kts | 253° |
| 2026-04-21 09:38 | 55.95204 | -3.89547 | 8477 ft | 295 kts | 253° |
| 2026-04-21 09:38 | 55.94680 | -3.93123 | 9380 ft | 299 kts | 252° |
| 2026-04-21 09:39 | 55.94142 | -3.96723 | 10273 ft | 302 kts | 249° |
| 2026-04-21 09:39 | 55.93318 | -4.00171 | 11065 ft | 303 kts | 236° |
| 2026-04-21 09:39 | 55.92110 | -4.03230 | 11830 ft | 302 kts | 224° |
| 2026-04-21 09:39 | 55.90571 | -4.05763 | 12638 ft | 300 kts | 211° |
| 2026-04-21 09:40 | 55.88803 | -4.07929 | 13025 ft | 320 kts | 209° |
| 2026-04-21 09:40 | 55.86893 | -4.10233 | 13252 ft | 343 kts | 209° |
| 2026-04-21 09:40 | 55.84864 | -4.12685 | 13624 ft | 360 kts | 210° |
| 2026-04-21 09:40 | 55.82779 | -4.15219 | 14325 ft | 366 kts | 210° |
| 2026-04-21 09:41 | 55.80666 | -4.17803 | 15008 ft | 370 kts | 210° |
| 2026-04-21 09:41 | 55.78541 | -4.20409 | 15703 ft | 374 kts | 210° |
| 2026-04-21 09:41 | 55.76397 | -4.23062 | 16316 ft | 378 kts | 211° |
| 2026-04-21 09:41 | 55.74246 | -4.25747 | 16508 ft | 379 kts | 211° |
| 2026-04-21 09:42 | 55.72057 | -4.28475 | 16567 ft | 391 kts | 211° |
| 2026-04-21 09:42 | 55.69817 | -4.31262 | 16562 ft | 394 kts | 211° |
| 2026-04-21 09:42 | 55.67572 | -4.34061 | 16561 ft | 395 kts | 211° |
| 2026-04-21 09:42 | 55.65329 | -4.36854 | 16557 ft | 395 kts | 211° |
| 2026-04-21 09:43 | 55.63077 | -4.39645 | 16534 ft | 395 kts | 211° |
| 2026-04-21 09:43 | 55.60826 | -4.42422 | 16541 ft | 395 kts | 211° |
| 2026-04-21 09:43 | 55.58570 | -4.45194 | 16520 ft | 395 kts | 211° |
| 2026-04-21 09:43 | 55.56315 | -4.47954 | 16537 ft | 395 kts | 210° |
| 2026-04-21 09:44 | 55.54057 | -4.50714 | 16546 ft | 394 kts | 210° |
| 2026-04-21 09:44 | 55.51807 | -4.53469 | 16547 ft | 394 kts | 210° |
| 2026-04-21 09:44 | 55.49556 | -4.56234 | 16540 ft | 394 kts | 210° |
| 2026-04-21 09:44 | 55.47308 | -4.58992 | 16547 ft | 394 kts | 210° |
| 2026-04-21 09:45 | 55.45058 | -4.61744 | 16542 ft | 394 kts | 210° |
| 2026-04-21 09:45 | 55.42806 | -4.64492 | 16556 ft | 394 kts | 210° |
| 2026-04-21 09:45 | 55.40556 | -4.67232 | 16564 ft | 393 kts | 210° |
| 2026-04-21 09:45 | 55.38300 | -4.69966 | 16520 ft | 393 kts | 210° |
| 2026-04-21 09:46 | 55.36049 | -4.72688 | 16512 ft | 393 kts | 210° |
| 2026-04-21 09:46 | 55.33794 | -4.75417 | 16507 ft | 393 kts | 210° |
| 2026-04-21 09:46 | 55.31534 | -4.78103 | 16509 ft | 391 kts | 207° |
| 2026-04-21 09:46 | 55.29142 | -4.80328 | 16506 ft | 388 kts | 202° |
| 2026-04-21 09:47 | 55.26730 | -4.82442 | 16500 ft | 388 kts | 202° |
| 2026-04-21 09:47 | 55.24345 | -4.84540 | 16496 ft | 388 kts | 202° |
| 2026-04-21 09:47 | 55.21903 | -4.86686 | 16497 ft | 388 kts | 202° |
| 2026-04-21 09:47 | 55.19494 | -4.88803 | 16494 ft | 387 kts | 202° |
| 2026-04-21 09:48 | 55.17080 | -4.90919 | 16495 ft | 388 kts | 202° |
| 2026-04-21 09:48 | 55.14705 | -4.92998 | 16500 ft | 387 kts | 202° |
| 2026-04-21 09:48 | 55.12294 | -4.95104 | 16513 ft | 387 kts | 202° |
| 2026-04-21 09:48 | 55.09880 | -4.97210 | 16514 ft | 387 kts | 202° |
| 2026-04-21 09:49 | 55.07473 | -4.99309 | 16506 ft | 387 kts | 202° |
| 2026-04-21 09:49 | 55.05063 | -5.01405 | 16494 ft | 387 kts | 202° |
| 2026-04-21 09:49 | 55.02652 | -5.03499 | 16494 ft | 387 kts | 202° |
| 2026-04-21 09:49 | 55.00238 | -5.05591 | 16489 ft | 387 kts | 202° |
| 2026-04-21 09:50 | 54.97826 | -5.07679 | 16490 ft | 387 kts | 202° |
| 2026-04-21 09:50 | 54.97008 | -5.08386 | 16489 ft | 387 kts | 202° |
| 2026-04-21 09:50 | 54.90739 | -5.14448 | 16478 ft | 392 kts | 216° |
| 2026-04-21 09:51 | 54.88797 | -5.17815 | 16490 ft | 397 kts | 228° |
| 2026-04-21 09:51 | 54.87288 | -5.21765 | 16255 ft | 390 kts | 239° |
| 2026-04-21 09:51 | 54.86265 | -5.26078 | 15975 ft | 385 kts | 248° |
| 2026-04-21 09:51 | 54.85389 | -5.30454 | 15458 ft | 381 kts | 248° |
| 2026-04-21 09:52 | 54.84515 | -5.34772 | 14946 ft | 378 kts | 248° |
| 2026-04-21 09:52 | 54.83638 | -5.39069 | 14413 ft | 377 kts | 247° |
| 2026-04-21 09:52 | 54.82764 | -5.43332 | 13854 ft | 374 kts | 248° |
| 2026-04-21 09:52 | 54.81893 | -5.47569 | 13314 ft | 371 kts | 247° |
| 2026-04-21 09:53 | 54.81033 | -5.51750 | 12768 ft | 367 kts | 248° |
| 2026-04-21 09:53 | 54.80160 | -5.55893 | 12241 ft | 363 kts | 244° |
| 2026-04-21 09:53 | 54.78983 | -5.59698 | 11726 ft | 355 kts | 232° |
| 2026-04-21 09:53 | 54.77437 | -5.62972 | 11258 ft | 347 kts | 221° |
| 2026-04-21 09:54 | 54.75649 | -5.65623 | 11115 ft | 330 kts | 214° |
| 2026-04-21 09:54 | 54.73881 | -5.68039 | 10989 ft | 317 kts | 214° |
| 2026-04-21 09:54 | 54.72187 | -5.70360 | 10866 ft | 305 kts | 214° |
| 2026-04-21 09:54 | 54.70550 | -5.72600 | 10665 ft | 296 kts | 214° |
| 2026-04-21 09:55 | 54.68953 | -5.74779 | 10558 ft | 291 kts | 214° |
| 2026-04-21 09:55 | 54.67364 | -5.76939 | 10490 ft | 291 kts | 214° |
| 2026-04-21 09:55 | 54.65765 | -5.79109 | 10167 ft | 294 kts | 214° |
| 2026-04-21 09:55 | 54.64157 | -5.81288 | 9742 ft | 292 kts | 214° |
| 2026-04-21 09:56 | 54.62551 | -5.83464 | 9187 ft | 296 kts | 214° |
| 2026-04-21 09:56 | 54.60950 | -5.85634 | 8909 ft | 290 kts | 214° |
| 2026-04-21 09:56 | 54.59365 | -5.87780 | 8478 ft | 290 kts | 214° |
| 2026-04-21 09:56 | 54.57776 | -5.89924 | 8056 ft | 289 kts | 214° |
| 2026-04-21 09:57 | 54.56196 | -5.92054 | 7640 ft | 288 kts | 214° |
| 2026-04-21 09:57 | 54.54618 | -5.94183 | 7227 ft | 288 kts | 214° |
| 2026-04-21 09:57 | 54.53043 | -5.96306 | 6821 ft | 287 kts | 214° |
| 2026-04-21 09:57 | 54.51474 | -5.98420 | 6379 ft | 286 kts | 214° |
| 2026-04-21 09:58 | 54.49912 | -6.00525 | 5996 ft | 284 kts | 214° |
| 2026-04-21 09:58 | 54.48385 | -6.02577 | 5581 ft | 282 kts | 214° |
| 2026-04-21 09:58 | 54.46815 | -6.04675 | 4833 ft | 291 kts | 214° |
| 2026-04-21 09:58 | 54.45201 | -6.06828 | 4071 ft | 291 kts | 214° |
| 2026-04-21 09:59 | 54.43675 | -6.08878 | 3830 ft | 266 kts | 214° |
| 2026-04-21 09:59 | 54.42244 | -6.10805 | 3714 ft | 258 kts | 213° |
| 2026-04-21 09:59 | 54.40841 | -6.12699 | 3638 ft | 257 kts | 214° |
| 2026-04-21 09:59 | 54.39435 | -6.14603 | 3581 ft | 257 kts | 213° |
| 2026-04-21 10:00 | 54.38211 | -6.16840 | 3515 ft | 262 kts | 241° |
| 2026-04-21 10:00 | 54.37895 | -6.19877 | 3451 ft | 263 kts | 280° |
| 2026-04-21 10:00 | 54.38669 | -6.22649 | 3389 ft | 260 kts | 318° |
| 2026-04-21 10:00 | 54.40204 | -6.24059 | 3331 ft | 249 kts | 356° |
| 2026-04-21 10:01 | 54.41831 | -6.23586 | 3272 ft | 236 kts | 35° |
| 2026-04-21 10:01 | 54.42859 | -6.21584 | 3226 ft | 217 kts | 69° |
| 2026-04-21 10:01 | 54.43473 | -6.19287 | 3165 ft | 206 kts | 67° |
| 2026-04-21 10:01 | 54.44078 | -6.17108 | 3116 ft | 201 kts | 67° |
| 2026-04-21 10:02 | 54.45277 | -6.12787 | 3021 ft | 200 kts | 67° |
| 2026-04-21 10:02 | 54.45872 | -6.10643 | 2972 ft | 199 kts | 67° |
| 2026-04-21 10:02 | 54.46467 | -6.08498 | 2935 ft | 199 kts | 68° |
| 2026-04-21 10:03 | 54.47062 | -6.06352 | 2898 ft | 197 kts | 67° |
| 2026-04-21 10:03 | 54.47815 | -6.04377 | 2855 ft | 200 kts | 51° |
| 2026-04-21 10:03 | 54.48866 | -6.02757 | 2767 ft | 205 kts | 42° |
| 2026-04-21 10:03 | 54.50018 | -6.01311 | 2583 ft | 203 kts | 39° |
| 2026-04-21 10:04 | 54.51176 | -5.99928 | 2461 ft | 203 kts | 39° |
| 2026-04-21 10:04 | 54.52339 | -5.98544 | 2227 ft | 204 kts | 39° |
| 2026-04-21 10:04 | 54.53483 | -5.97188 | 1972 ft | 194 kts | 39° |
| 2026-04-21 10:04 | 54.54560 | -5.95908 | 1693 ft | 185 kts | 39° |
| 2026-04-21 10:05 | 54.55613 | -5.94652 | 1442 ft | 182 kts | 39° |
| 2026-04-21 10:05 | 54.56609 | -5.93468 | 1202 ft | 165 kts | 39° |
| 2026-04-21 10:05 | 54.57515 | -5.92389 | 958 ft | 152 kts | 39° |
| 2026-04-21 10:05 | 54.58340 | -5.91405 | 778 ft | 139 kts | 40° |
| 2026-04-21 10:06 | 54.59117 | -5.90478 | 570 ft | 131 kts | 41° |
| 2026-04-21 10:06 | 54.59865 | -5.89580 | 384 ft | 130 kts | 39° |
| 2026-04-21 10:06 | 54.60604 | -5.88692 | 211 ft | 128 kts | 40° |
| 2026-04-21 10:06 | 54.61347 | -5.87812 | 47 ft | 128 kts | 40° |
| 2026-04-21 10:07 | 54.62013 | -5.87017 | 20 ft | 73 kts | 37° |
| 2026-04-21 10:07 | 54.62122 | -5.86871 | 20 ft | 2 kts | 341° |
| 2026-04-21 10:07 | 54.62105 | -5.86903 | 20 ft | 8 kts | 213° |
| 2026-04-21 10:07 | 54.62027 | -5.86991 | 20 ft | 19 kts | 213° |
| 2026-04-21 10:08 | 54.61888 | -5.87131 | 22 ft | 19 kts | 199° |
| 2026-04-21 10:08 | 54.61804 | -5.87094 | 21 ft | 12 kts | 117° |
| 2026-04-21 10:08 | 54.61750 | -5.86999 | 21 ft | 11 kts | 164° |
| 2026-04-21 10:08 | 54.61679 | -5.87011 | 22 ft | 10 kts | 186° |
| 2026-04-21 10:09 | 54.61613 | -5.87032 | 21 ft | 5 kts | 204° |
| 2026-04-21 10:09 | 54.61612 | -5.87033 | 21 ft | 0 kts | 205° |